Time;durP1;ratioP1;P1;durP2;ratioP2;P2;SDS_P1;SDS_P2;PMS_P1;PMS_P2;Temp;Humidity;BMP_temperature;BMP_pressure;BME280_temperature;BME280_humidity;BME280_pressure;Samples;Min_cycle;Max_cycle;Signal;HPM_P1;HPM_P2
2021/12/21 00:00:24;;;;;;;14.93;9.18;;;;;;;-0.32;59.54;93251.47;2068460;69;20164;-68
2021/12/21 00:02:52;;;;;;;17.63;9.30;;;;;;;-0.27;59.41;93251.38;2068141;69;20513;-68
2021/12/21 00:05:20;;;;;;;17.05;9.10;;;;;;;-0.43;59.29;93254.41;2068225;69;20223;-68
2021/12/21 00:07:49;;;;;;;16.33;9.15;;;;;;;-0.46;59.19;93245.13;2068201;69;20180;-67
2021/12/21 00:10:17;;;;;;;17.52;9.10;;;;;;;-0.47;59.55;93240.13;2067880;69;20592;-68
2021/12/21 00:15:35;;;;;;;18.38;9.15;;;;;;;-0.34;58.91;93243.69;2070233;69;20154;-68
2021/12/21 00:18:14;;;;;;;16.27;9.02;;;;;;;-0.32;59.10;93252.22;2068051;69;20155;-67
2021/12/21 00:20:54;;;;;;;15.77;9.30;;;;;;;-0.17;58.92;93248.97;2070813;69;20147;-67
2021/12/21 00:23:32;;;;;;;16.73;9.30;;;;;;;-0.16;58.98;93244.91;2071454;69;20176;-68
2021/12/21 00:25:59;;;;;;;15.32;8.60;;;;;;;-0.40;59.23;93242.28;2070954;69;20210;-67
2021/12/21 00:28:26;;;;;;;16.20;9.60;;;;;;;-0.34;58.65;93240.19;2071079;69;20298;-68
2021/12/21 00:30:52;;;;;;;19.55;10.02;;;;;;;-0.39;58.76;93241.03;2071496;69;20259;-69
2021/12/21 00:33:18;;;;;;;17.80;9.77;;;;;;;-0.32;58.85;93241.16;2071388;69;20249;-69
2021/12/21 00:35:45;;;;;;;16.80;9.70;;;;;;;-0.43;58.86;93235.03;2071249;69;20263;-68
2021/12/21 00:38:11;;;;;;;16.15;9.70;;;;;;;-0.33;58.83;93244.44;2071608;69;20148;-68
2021/12/21 00:40:36;;;;;;;17.20;9.77;;;;;;;-0.30;59.13;93243.38;2071341;69;20128;-68
2021/12/21 00:43:02;;;;;;;16.50;9.50;;;;;;;-0.34;59.46;93237.41;2071331;69;20160;-69
2021/12/21 00:45:28;;;;;;;17.52;9.77;;;;;;;-0.40;58.97;93243.03;2070979;69;21032;-69
2021/12/21 00:47:54;;;;;;;17.55;10.35;;;;;;;-0.36;58.89;93237.22;2071181;69;20194;-69
2021/12/21 00:50:20;;;;;;;17.45;9.68;;;;;;;-0.36;58.85;93235.19;2071087;69;20155;-68
2021/12/21 00:52:51;;;;;;;17.92;10.02;;;;;;;-0.36;58.32;93229.66;2071362;69;20484;-67
2021/12/21 00:55:18;;;;;;;16.85;9.68;;;;;;;-0.18;58.60;93225.34;2071301;69;20149;-68
2021/12/21 00:57:44;;;;;;;18.30;10.07;;;;;;;-0.24;58.90;93227.44;2071175;69;20164;-67
2021/12/21 01:00:12;;;;;;;18.52;10.40;;;;;;;-0.31;58.50;93222.53;2071117;69;20188;-67
2021/12/21 01:02:38;;;;;;;17.52;9.88;;;;;;;-0.34;58.97;93229.13;2067533;69;20156;-67
2021/12/21 01:05:11;;;;;;;18.77;9.68;;;;;;;-0.55;59.17;93226.94;2067391;69;20144;-68
2021/12/21 01:07:41;;;;;;;17.65;10.27;;;;;;;-0.48;58.56;93216.50;2071333;69;20144;-68
2021/12/21 01:13:00;;;;;;;20.10;10.40;;;;;;;-0.60;58.89;93219.44;2071300;69;20171;-67
2021/12/21 01:20:33;;;;;;;16.10;9.40;;;;;;;-0.93;59.20;93208.88;2071329;69;20596;-69
2021/12/21 01:23:26;;;;;;;19.77;10.82;;;;;;;-1.01;60.32;93214.25;2071053;69;20155;-68
2021/12/21 01:25:57;;;;;;;19.17;9.65;;;;;;;-0.77;58.75;93207.91;2070884;69;20141;-67
2021/12/21 01:28:36;;;;;;;18.35;10.40;;;;;;;-0.77;59.55;93213.44;2070861;69;20939;-68
2021/12/21 01:31:33;;;;;;;18.40;10.32;;;;;;;-0.76;59.34;93214.91;2070826;69;20851;-68
2021/12/21 01:36:47;;;;;;;16.52;9.63;;;;;;;-1.11;60.22;93202.09;2071259;69;20175;-69
2021/12/21 01:39:43;;;;;;;18.45;10.05;;;;;;;-1.16;59.22;93205.66;2071306;69;20144;-67
2021/12/21 01:49:44;;;;;;;17.58;9.60;;;;;;;-1.07;60.32;93189.47;2070687;69;20144;-68
2021/12/21 01:52:13;;;;;;;16.48;9.40;;;;;;;-1.12;59.69;93195.81;2070864;69;20248;-68
2021/12/21 01:54:38;;;;;;;16.48;9.43;;;;;;;-1.27;59.33;93197.53;2070866;69;20245;-69
2021/12/21 01:57:05;;;;;;;18.40;9.40;;;;;;;-1.16;59.34;93197.38;2071021;69;20603;-67
2021/12/21 01:59:32;;;;;;;19.55;9.73;;;;;;;-1.14;58.88;93192.09;2070864;69;20765;-70
2021/12/21 02:01:58;;;;;;;16.83;9.07;;;;;;;-1.12;59.79;93186.78;2071001;69;20188;-68
2021/12/21 02:04:23;;;;;;;17.83;8.88;;;;;;;-1.40;59.17;93184.38;2071474;69;20191;-68
2021/12/21 02:06:49;;;;;;;18.35;9.10;;;;;;;-1.19;59.22;93193.66;2071513;69;20241;-67
2021/12/21 02:09:19;;;;;;;17.17;9.10;;;;;;;-1.22;59.42;93182.91;2071554;69;20227;-68
2021/12/21 02:11:48;;;;;;;17.33;9.35;;;;;;;-1.30;59.68;93182.75;2068271;69;20232;-68
2021/12/21 02:14:15;;;;;;;18.02;9.23;;;;;;;-1.36;59.97;93184.84;2071667;69;20140;-68
2021/12/21 02:16:53;;;;;;;18.15;9.45;;;;;;;-1.40;59.86;93173.34;2071432;69;20140;-67
2021/12/21 02:19:31;;;;;;;19.55;9.02;;;;;;;-1.47;60.62;93176.69;2071462;69;20588;-68
2021/12/21 02:22:07;;;;;;;16.92;9.55;;;;;;;-1.31;59.16;93168.19;2067469;69;20144;-68
2021/12/21 02:24:42;;;;;;;16.20;8.63;;;;;;;-1.32;60.34;93169.47;2071024;69;20157;-68
2021/12/21 02:27:25;;;;;;;16.80;8.57;;;;;;;-1.37;59.06;93164.75;2070543;69;20366;-68
2021/12/21 02:29:51;;;;;;;16.20;8.80;;;;;;;-1.32;60.45;93158.41;2068500;69;20163;-68
2021/12/21 02:32:17;;;;;;;18.58;8.95;;;;;;;-1.35;59.39;93159.44;2068109;69;20535;-67
2021/12/21 02:34:44;;;;;;;17.23;9.02;;;;;;;-1.46;59.19;93154.09;2071305;69;20172;-68
2021/12/21 02:37:11;;;;;;;17.70;9.32;;;;;;;-1.57;59.67;93149.44;2071561;69;20148;-66
2021/12/21 02:39:37;;;;;;;18.58;9.00;;;;;;;-1.48;59.76;93158.63;2071413;69;20282;-66
2021/12/21 02:42:04;;;;;;;19.02;8.93;;;;;;;-1.63;59.72;93159.06;2071449;69;20198;-70
2021/12/21 02:44:30;;;;;;;14.27;8.32;;;;;;;-1.66;59.73;93157.34;2071440;69;20180;-72
2021/12/21 02:46:56;;;;;;;16.15;8.35;;;;;;;-1.60;60.07;93163.56;2071346;69;20231;-66
2021/12/21 02:49:21;;;;;;;16.42;8.95;;;;;;;-1.58;59.56;93158.25;2071542;69;20246;-70
2021/12/21 02:51:47;;;;;;;16.35;8.38;;;;;;;-1.77;59.95;93154.72;2068217;69;20160;-67
2021/12/21 02:54:15;;;;;;;17.52;9.00;;;;;;;-1.76;59.89;93147.94;2071810;69;20144;-67
2021/12/21 02:56:41;;;;;;;15.77;8.25;;;;;;;-1.82;59.69;93145.97;2071651;69;20140;-67
2021/12/21 02:59:07;;;;;;;16.85;8.32;;;;;;;-1.78;59.33;93150.47;2071452;69;20140;-67
2021/12/21 03:01:34;;;;;;;17.50;8.40;;;;;;;-1.90;60.17;93149.84;2071906;69;20604;-67
2021/12/21 03:04:00;;;;;;;14.98;8.38;;;;;;;-1.90;59.78;93139.56;2071565;69;20246;-67
2021/12/21 03:11:56;;;;;;;15.23;7.82;;;;;;;-1.87;59.58;93146.06;2071190;69;20133;-67
2021/12/21 03:14:23;;;;;;;15.25;8.05;;;;;;;-1.88;59.62;93133.50;2071271;69;20310;-67
2021/12/21 03:16:49;;;;;;;17.95;7.97;;;;;;;-2.11;60.32;93133.00;2071546;69;20591;-68
2021/12/21 03:19:14;;;;;;;15.45;8.00;;;;;;;-2.09;59.79;93131.25;2071098;69;20178;-67
2021/12/21 03:21:40;;;;;;;16.77;7.60;;;;;;;-2.08;61.15;93129.97;2071525;69;20148;-67
2021/12/21 03:24:08;;;;;;;16.33;8.00;;;;;;;-2.31;60.17;93126.69;2071608;69;20160;-67
2021/12/21 03:26:34;;;;;;;15.77;8.60;;;;;;;-2.10;59.57;93131.75;2071676;69;20148;-69
2021/12/21 03:29:02;;;;;;;14.63;7.95;;;;;;;-2.13;60.36;93130.78;2068410;69;20608;-69
2021/12/21 03:31:28;;;;;;;16.13;7.97;;;;;;;-2.27;60.76;93125.66;2068487;69;20532;-69
2021/12/21 03:33:54;;;;;;;16.95;7.65;;;;;;;-2.16;60.20;93123.53;2071661;69;20148;-70
2021/12/21 03:36:19;;;;;;;14.25;7.38;;;;;;;-2.28;60.24;93115.91;2071744;69;20180;-68
2021/12/21 03:38:54;;;;;;;14.63;7.68;;;;;;;-2.14;61.06;93117.50;2071587;69;20231;-68
2021/12/21 03:41:20;;;;;;;15.52;7.45;;;;;;;-2.22;60.54;93120.09;2068555;69;20169;-67
2021/12/21 03:43:46;;;;;;;12.57;7.18;;;;;;;-2.13;61.40;93116.25;2070376;69;20140;-69
2021/12/21 03:46:14;;;;;;;15.10;7.40;;;;;;;-2.08;59.97;93118.19;2071704;69;20175;-67
2021/12/21 03:48:45;;;;;;;17.35;7.38;;;;;;;-2.26;59.79;93118.88;2071764;69;20147;-68
2021/12/21 03:51:13;;;;;;;18.52;7.55;;;;;;;-2.11;60.65;93117.22;2071899;69;20574;-68
2021/12/21 03:53:39;;;;;;;15.82;6.70;;;;;;;-2.17;59.91;93116.53;2071773;69;20263;-68
2021/12/21 03:58:33;;;;;;;14.23;7.03;;;;;;;-2.26;61.51;93103.09;2071698;69;20511;-70
2021/12/21 04:00:59;;;;;;;12.60;6.30;;;;;;;-2.17;60.45;93096.47;2071716;69;20159;-70
2021/12/21 04:03:25;;;;;;;14.38;7.10;;;;;;;-2.25;60.19;93099.06;2071699;69;20144;-69
2021/12/21 04:05:50;;;;;;;12.88;6.78;;;;;;;-2.09;60.21;93100.16;2071513;69;20163;-69
2021/12/21 04:08:16;;;;;;;15.43;8.07;;;;;;;-2.25;59.67;93092.78;2068340;69;20129;-69
2021/12/21 04:10:42;;;;;;;13.15;7.63;;;;;;;-2.33;60.24;93087.88;2071815;69;20607;-68
2021/12/21 04:13:10;;;;;;;13.73;7.13;;;;;;;-2.35;60.22;93084.88;2071736;69;20168;-70
2021/12/21 04:15:42;;;;;;;14.25;6.95;;;;;;;-2.47;60.38;93088.28;2071784;69;20156;-68
2021/12/21 04:18:12;;;;;;;13.32;7.32;;;;;;;-2.47;61.08;93080.75;2071794;69;20144;-68
2021/12/21 04:20:40;;;;;;;17.77;8.68;;;;;;;-2.55;61.30;93085.34;2071767;69;20164;-67
2021/12/21 04:23:06;;;;;;;14.90;7.65;;;;;;;-2.50;61.01;93083.78;2068429;69;20164;-68
2021/12/21 04:25:32;;;;;;;16.05;7.38;;;;;;;-2.42;60.79;93088.22;2071770;69;20160;-69
2021/12/21 04:27:58;;;;;;;16.33;7.70;;;;;;;-2.62;62.02;93086.66;2068375;69;20163;-68
2021/12/21 04:30:24;;;;;;;13.52;7.28;;;;;;;-2.40;60.90;93085.69;2071764;69;20520;-70
2021/12/21 04:32:50;;;;;;;17.08;7.55;;;;;;;-2.33;60.86;93074.09;2068402;69;20640;-70
2021/12/21 04:35:19;;;;;;;13.88;7.00;;;;;;;-2.35;60.27;93082.13;2071622;69;20144;-69
2021/12/21 04:37:54;;;;;;;15.18;6.95;;;;;;;-2.53;60.42;93076.53;2071838;69;20152;-69
2021/12/21 04:40:24;;;;;;;16.17;6.97;;;;;;;-2.71;60.86;93067.69;2071746;69;20132;-69
2021/12/21 04:42:50;;;;;;;12.27;6.70;;;;;;;-2.51;60.84;93069.25;2071909;69;20203;-69
2021/12/21 04:45:16;;;;;;;14.70;6.60;;;;;;;-2.54;60.36;93073.03;2071705;69;20618;-68
2021/12/21 04:47:41;;;;;;;12.82;6.93;;;;;;;-2.59;60.37;93074.59;2071692;69;20164;-68
2021/12/21 04:50:07;;;;;;;13.52;6.40;;;;;;;-2.64;60.93;93067.13;2071593;69;20156;-68
2021/12/21 04:52:33;;;;;;;13.05;6.75;;;;;;;-2.71;60.33;93081.47;2071936;69;20150;-68
2021/12/21 04:54:59;;;;;;;12.98;6.47;;;;;;;-2.62;60.40;93083.16;2071668;69;20140;-68
2021/12/21 04:57:24;;;;;;;11.77;6.05;;;;;;;-2.63;60.57;93087.19;2071696;69;20157;-68
2021/12/21 04:59:50;;;;;;;13.25;6.55;;;;;;;-2.50;61.07;93081.03;2071665;69;20172;-68
2021/12/21 05:02:17;;;;;;;15.82;6.50;;;;;;;-2.77;60.87;93088.31;2071692;69;20527;-67
2021/12/21 05:04:43;;;;;;;11.25;6.28;;;;;;;-2.72;61.00;93079.97;2071535;69;20140;-69
2021/12/21 05:07:08;;;;;;;13.00;6.25;;;;;;;-2.71;60.93;93080.72;2071713;69;20159;-68
2021/12/21 05:09:42;;;;;;;11.02;6.07;;;;;;;-2.61;60.48;93079.16;2071667;69;20230;-71
2021/12/21 05:12:10;;;;;;;12.05;5.57;;;;;;;-2.69;60.78;93080.97;2071910;69;20288;-71
2021/12/21 05:14:36;;;;;;;12.15;6.35;;;;;;;-2.72;60.72;93073.72;2071641;69;20132;-69
2021/12/21 05:17:02;;;;;;;11.88;6.30;;;;;;;-2.81;60.12;93074.81;2071703;69;20240;-70
2021/12/21 05:19:28;;;;;;;11.73;5.90;;;;;;;-2.83;60.53;93078.09;2071607;69;20681;-69
2021/12/21 05:21:54;;;;;;;17.52;8.60;;;;;;;-2.82;60.98;93084.34;2068305;69;20149;-69
2021/12/21 05:24:19;;;;;;;19.10;9.02;;;;;;;-3.08;61.51;93090.31;2071757;69;20148;-70
2021/12/21 05:26:45;;;;;;;12.52;6.28;;;;;;;-3.17;61.56;93080.38;2071690;69;20222;-68
2021/12/21 05:29:10;;;;;;;15.63;5.95;;;;;;;-3.05;61.25;93094.81;2071626;69;20136;-69
2021/12/21 05:31:36;;;;;;;12.80;5.70;;;;;;;-3.26;61.87;93094.47;2068279;69;20562;-68
2021/12/21 05:34:02;;;;;;;12.30;6.30;;;;;;;-3.24;61.75;93097.47;2071478;69;20168;-68
2021/12/21 05:36:28;;;;;;;11.35;5.85;;;;;;;-3.12;61.05;93098.84;2071509;69;20148;-68
2021/12/21 05:38:59;;;;;;;12.70;5.97;;;;;;;-3.11;61.14;93092.09;2071994;69;20159;-69
2021/12/21 05:41:40;;;;;;;13.63;5.78;;;;;;;-3.16;61.79;93087.41;2072082;69;20140;-69
2021/12/21 05:44:06;;;;;;;12.02;5.68;;;;;;;-3.03;61.55;93100.53;2068738;69;20171;-70
2021/12/21 05:46:32;;;;;;;13.15;5.97;;;;;;;-2.97;60.64;93092.25;2072034;69;20239;-69
2021/12/21 05:48:57;;;;;;;12.55;6.10;;;;;;;-3.04;60.93;93096.28;2071937;69;20210;-70
2021/12/21 05:51:23;;;;;;;13.25;5.90;;;;;;;-3.00;60.70;93098.78;2072009;69;20152;-70
2021/12/21 05:53:49;;;;;;;13.55;6.30;;;;;;;-3.35;61.92;93103.78;2072044;69;20164;-71
2021/12/21 05:56:16;;;;;;;17.00;6.72;;;;;;;-3.30;61.96;93096.75;2072051;69;20227;-72
2021/12/21 05:58:41;;;;;;;15.40;6.90;;;;;;;-3.34;61.10;93099.03;2072034;69;20255;-68
2021/12/21 06:01:07;;;;;;;13.23;6.40;;;;;;;-3.20;60.99;93100.69;2072012;69;20661;-68
2021/12/21 06:03:33;;;;;;;12.27;6.32;;;;;;;-3.35;61.22;93095.50;2072260;69;20190;-68
2021/12/21 06:05:59;;;;;;;13.15;6.53;;;;;;;-3.29;61.38;93095.50;2071965;69;20186;-68
2021/12/21 06:08:25;;;;;;;16.67;6.85;;;;;;;-3.25;61.82;93101.47;2071975;69;20187;-68
2021/12/21 06:10:53;;;;;;;14.77;6.55;;;;;;;-3.41;62.53;93091.31;2072002;69;20592;-68
2021/12/21 06:26:28;;;;;;;18.90;7.82;;;;;;;-3.44;61.90;93111.59;2071960;69;20137;-69
2021/12/21 06:28:54;;;;;;;11.80;5.47;;;;;;;-3.46;61.81;93105.88;2072013;69;20140;-68
2021/12/21 06:31:20;;;;;;;11.00;6.07;;;;;;;-3.59;62.51;93106.44;2071972;69;20152;-70
2021/12/21 06:33:46;;;;;;;9.55;5.18;;;;;;;-3.45;62.32;93119.13;2071965;69;20152;-71
2021/12/21 06:36:12;;;;;;;9.02;5.28;;;;;;;-3.39;62.13;93103.31;2071991;69;20580;-69
2021/12/21 06:38:38;;;;;;;12.68;5.95;;;;;;;-3.41;62.26;93105.81;2071959;69;20614;-70
2021/12/21 06:41:04;;;;;;;15.93;6.80;;;;;;;-3.60;62.73;93115.97;2072025;69;20144;-69
2021/12/21 06:43:31;;;;;;;12.23;6.35;;;;;;;-3.70;62.90;93106.53;2072002;69;20238;-69
2021/12/21 06:46:06;;;;;;;12.05;6.13;;;;;;;-3.45;62.65;93112.88;2071978;69;20595;-69
2021/12/21 06:51:21;;;;;;;18.38;6.80;;;;;;;-3.48;62.43;93108.38;2071903;69;20234;-69
2021/12/21 06:53:52;;;;;;;12.05;6.22;;;;;;;-3.47;62.41;93109.88;2072071;69;20151;-69
2021/12/21 06:56:19;;;;;;;13.48;6.10;;;;;;;-3.43;62.26;93110.38;2071933;69;20240;-70
2021/12/21 06:58:45;;;;;;;12.10;5.80;;;;;;;-3.55;62.73;93115.19;2071916;69;20148;-70
2021/12/21 07:01:13;;;;;;;14.90;7.30;;;;;;;-3.47;62.42;93115.41;2071991;69;20154;-69
2021/12/21 07:03:41;;;;;;;16.33;7.47;;;;;;;-3.62;62.65;93110.97;2071944;69;20180;-70
2021/12/21 07:06:08;;;;;;;16.38;6.80;;;;;;;-3.55;62.05;93108.94;2071721;69;20224;-69
2021/12/21 07:08:45;;;;;;;16.17;6.40;;;;;;;-3.51;61.63;93112.91;2071907;69;20162;-72
2021/12/21 07:11:19;;;;;;;12.48;6.68;;;;;;;-3.50;62.08;93114.41;2071928;69;20143;-71
2021/12/21 07:19:14;;;;;;;15.70;7.57;;;;;;;-3.63;62.40;93114.22;2071832;69;20139;-69
2021/12/21 07:21:40;;;;;;;17.52;8.25;;;;;;;-3.68;63.13;93120.50;2072095;69;20222;-72
2021/12/21 07:24:06;;;;;;;15.93;7.75;;;;;;;-3.54;62.55;93115.94;2072092;69;20152;-70
2021/12/21 07:26:32;;;;;;;16.48;7.60;;;;;;;-3.50;62.41;93119.91;2070262;69;20179;-71
2021/12/21 07:28:57;;;;;;;15.77;7.35;;;;;;;-3.52;62.43;93122.44;2071719;69;20144;-72
2021/12/21 07:31:23;;;;;;;15.68;7.53;;;;;;;-3.30;62.19;93129.03;2071985;69;20247;-69
2021/12/21 07:33:49;;;;;;;15.05;7.13;;;;;;;-3.36;62.07;93126.31;2068409;69;20151;-72
2021/12/21 07:36:15;;;;;;;14.32;6.97;;;;;;;-3.35;61.83;93136.81;2071901;69;20150;-74
2021/12/21 07:38:41;;;;;;;55.15;19.40;;;;;;;-3.34;61.94;93134.84;2071965;69;20236;-70
2021/12/21 07:41:06;;;;;;;19.63;8.18;;;;;;;-3.47;62.04;93137.41;2071647;69;20152;-72
2021/12/21 07:43:32;;;;;;;18.05;8.98;;;;;;;-3.37;61.74;93124.84;2071988;69;20175;-69
2021/12/21 07:45:59;;;;;;;16.80;8.25;;;;;;;-3.36;62.00;93129.06;2068514;69;20243;-69
2021/12/21 07:48:25;;;;;;;13.90;7.18;;;;;;;-3.41;61.58;93127.84;2071789;69;20235;-69
2021/12/21 07:50:51;;;;;;;19.67;8.00;;;;;;;-3.50;62.17;93121.91;2071749;69;20246;-71
2021/12/21 07:53:19;;;;;;;18.42;9.60;;;;;;;-3.45;62.29;93126.63;2072003;69;20148;-69
2021/12/21 07:55:45;;;;;;;16.67;8.63;;;;;;;-3.72;62.80;93126.28;2071815;69;20588;-70
2021/12/21 07:58:11;;;;;;;15.38;7.80;;;;;;;-3.52;62.72;93127.19;2071824;69;20175;-74
2021/12/21 08:00:37;;;;;;;15.27;8.10;;;;;;;-3.31;62.08;93128.28;2071649;69;20168;-71
2021/12/21 08:03:04;;;;;;;15.70;7.18;;;;;;;-3.28;61.78;93121.78;2071779;69;20168;-71
2021/12/21 08:05:33;;;;;;;13.10;7.22;;;;;;;-3.35;62.52;93130.56;2071682;69;20223;-74
2021/12/21 08:08:10;;;;;;;15.77;6.65;;;;;;;-3.39;62.13;93138.34;2071958;69;20278;-70
2021/12/21 08:10:45;;;;;;;15.48;7.22;;;;;;;-3.23;62.08;93128.50;2071858;69;20128;-71
2021/12/21 08:13:12;;;;;;;18.30;7.70;;;;;;;-3.33;61.59;93134.31;2071828;69;20156;-70
2021/12/21 08:15:38;;;;;;;13.55;7.00;;;;;;;-3.33;61.47;93126.06;2071774;69;20194;-70
2021/12/21 08:18:03;;;;;;;15.95;7.60;;;;;;;-3.24;61.20;93133.25;2071791;69;20140;-70
2021/12/21 08:20:29;;;;;;;17.42;7.22;;;;;;;-3.36;61.56;93129.06;2071713;69;20144;-70
2021/12/21 08:22:55;;;;;;;17.98;7.32;;;;;;;-3.17;61.43;93135.44;2071835;69;20179;-69
2021/12/21 08:25:26;;;;;;;13.18;6.45;;;;;;;-3.16;61.50;93141.69;2071860;69;20610;-68
2021/12/21 08:27:56;;;;;;;14.73;6.95;;;;;;;-3.11;61.61;93136.19;2071931;69;20159;-68
2021/12/21 08:30:23;;;;;;;18.48;8.15;;;;;;;-3.35;61.38;93136.06;2071809;69;20622;-68
2021/12/21 08:32:49;;;;;;;20.33;8.35;;;;;;;-3.27;61.51;93136.28;2071910;69;20179;-70
2021/12/21 08:35:14;;;;;;;17.70;9.10;;;;;;;-3.33;61.01;93141.84;2071780;69;20255;-75
2021/12/21 08:37:44;;;;;;;52.30;17.52;;;;;;;-3.43;61.25;93138.63;2071832;69;20147;-75
2021/12/21 08:40:11;;;;;;;23.25;9.90;;;;;;;-3.38;61.67;93131.59;2071495;69;20237;-68
2021/12/21 08:42:39;;;;;;;22.48;10.32;;;;;;;-3.30;61.60;93126.28;2070081;69;20128;-75
2021/12/21 08:45:06;;;;;;;21.98;9.80;;;;;;;-3.74;62.64;93128.06;2073425;69;20235;-70
2021/12/21 08:47:35;;;;;;;20.75;9.52;;;;;;;-3.38;62.13;93131.59;2071571;69;20175;-70
2021/12/21 08:50:05;;;;;;;37.97;13.82;;;;;;;-3.73;62.80;93143.31;2071593;69;20620;-69
2021/12/21 08:52:32;;;;;;;47.88;15.23;;;;;;;-3.40;62.63;93131.34;2071697;69;20132;-69
2021/12/21 08:54:58;;;;;;;44.22;16.13;;;;;;;-3.66;62.91;93129.00;2071657;69;20146;-74
2021/12/21 08:57:23;;;;;;;48.15;18.35;;;;;;;-3.25;63.89;93123.50;2069922;69;20141;-69
2021/12/21 08:59:50;;;;;;;39.75;16.38;;;;;;;-2.84;63.34;93122.69;2069765;69;20548;-69
2021/12/21 09:02:15;;;;;;;28.13;11.80;;;;;;;-2.50;63.66;93119.63;2071519;69;20227;-67
2021/12/21 09:04:41;;;;;;;37.47;11.68;;;;;;;-2.33;63.08;93122.97;2071331;69;20327;-69
2021/12/21 09:07:07;;;;;;;28.42;12.40;;;;;;;-1.69;62.16;93117.72;2071740;69;20511;-69
2021/12/21 09:09:33;;;;;;;34.05;15.98;;;;;;;-1.71;60.91;93125.03;2071503;69;20398;-70
2021/12/21 09:11:59;;;;;;;45.92;17.45;;;;;;;-1.50;61.09;93120.50;2071254;69;20667;-71
2021/12/21 09:14:27;;;;;;;43.58;17.00;;;;;;;-1.14;59.88;93123.75;2071895;69;20159;-71
2021/12/21 09:16:52;;;;;;;34.13;13.90;;;;;;;-0.93;60.81;93125.97;2071627;69;20653;-69
2021/12/21 09:19:18;;;;;;;31.10;12.60;;;;;;;-0.53;60.16;93119.28;2071761;69;20144;-70
2021/12/21 09:21:44;;;;;;;39.97;14.57;;;;;;;-0.29;58.66;93112.81;2071658;69;20142;-72
2021/12/21 09:24:10;;;;;;;44.58;17.48;;;;;;;-0.35;56.86;93114.94;2071772;69;20156;-69
2021/12/21 09:26:36;;;;;;;38.38;14.77;;;;;;;-0.01;58.26;93111.53;2071387;69;20160;-69
2021/12/21 09:29:03;;;;;;;28.67;11.80;;;;;;;0.19;57.16;93110.19;2071621;69;20254;-69
2021/12/21 09:31:28;;;;;;;41.67;15.55;;;;;;;0.50;56.51;93100.97;2071604;69;20164;-68
2021/12/21 09:33:54;;;;;;;36.00;14.35;;;;;;;0.36;56.56;93099.47;2071828;69;20148;-69
2021/12/21 09:36:20;;;;;;;43.95;16.40;;;;;;;0.61;55.82;93093.69;2071635;69;20615;-69
2021/12/21 09:38:46;;;;;;;46.92;17.98;;;;;;;1.08;55.36;93096.41;2071579;69;20148;-69
2021/12/21 09:41:12;;;;;;;31.85;14.27;;;;;;;1.32;55.03;93095.34;2071607;69;20164;-70
2021/12/21 09:43:40;;;;;;;42.30;16.80;;;;;;;1.55;54.86;93101.06;2067988;69;20235;-70
2021/12/21 09:46:10;;;;;;;29.67;13.77;;;;;;;1.62;53.48;93091.34;2071235;69;20587;-69
2021/12/21 09:48:36;;;;;;;29.80;15.10;;;;;;;1.77;52.53;93097.00;2071339;69;20230;-69
2021/12/21 09:51:02;;;;;;;31.10;15.00;;;;;;;1.50;53.43;93093.63;2070267;69;20330;-68
2021/12/21 09:53:31;;;;;;;20.38;11.57;;;;;;;1.87;52.73;93097.97;2071275;69;20616;-69
2021/12/21 09:55:57;;;;;;;12.95;7.72;;;;;;;1.69;52.62;93094.16;2070795;69;20160;-69
2021/12/21 09:58:22;;;;;;;19.75;9.93;;;;;;;1.93;51.83;93100.63;2071292;69;20246;-69
2021/12/21 10:00:48;;;;;;;16.38;9.43;;;;;;;1.66;51.70;93081.38;2071134;69;20151;-69
2021/12/21 10:03:14;;;;;;;26.45;15.88;;;;;;;2.35;52.06;93090.13;2071457;69;20136;-68
2021/12/21 10:05:42;;;;;;;18.13;9.82;;;;;;;2.04;50.85;93092.00;2071371;69;20171;-69
2021/12/21 10:08:16;;;;;;;17.85;10.75;;;;;;;2.55;51.27;93083.72;2071494;69;20543;-69
2021/12/21 10:10:48;;;;;;;16.17;9.02;;;;;;;2.49;50.64;93082.41;2071578;69;20153;-69
2021/12/21 10:13:22;;;;;;;17.90;9.32;;;;;;;2.53;49.37;93072.44;2071540;69;20180;-69
2021/12/21 10:16:00;;;;;;;16.15;9.40;;;;;;;2.46;50.13;93070.34;2071203;69;20162;-69
2021/12/21 10:18:35;;;;;;;24.92;12.52;;;;;;;2.75;49.26;93068.25;2071674;69;20148;-69
2021/12/21 10:21:05;;;;;;;26.45;14.05;;;;;;;3.18;49.41;93057.59;2071403;69;20200;-69
2021/12/21 10:23:36;;;;;;;24.45;13.77;;;;;;;2.85;48.44;93056.59;2071790;69;20239;-69
2021/12/21 10:26:07;;;;;;;14.93;9.35;;;;;;;3.14;47.68;93054.44;2068711;69;20695;-70
2021/12/21 10:28:39;;;;;;;22.15;11.52;;;;;;;3.13;47.52;93052.94;2072047;69;20241;-71
2021/12/21 10:31:06;;;;;;;68.28;30.50;;;;;;;3.70;46.86;93047.03;2071579;69;20137;-71
2021/12/21 10:33:32;;;;;;;32.20;16.67;;;;;;;3.91;47.50;93044.78;2071935;69;20600;-71
2021/12/21 10:36:02;;;;;;;36.08;13.90;;;;;;;4.39;45.40;93046.91;2071820;69;20168;-72
2021/12/21 10:38:44;;;;;;;23.15;11.57;;;;;;;3.72;46.03;93050.00;2071997;69;20164;-70
2021/12/21 10:41:13;;;;;;;26.10;14.37;;;;;;;4.64;45.73;93047.00;2072002;69;20224;-72
2021/12/21 10:43:38;;;;;;;31.27;15.05;;;;;;;5.59;44.69;93043.28;2074659;69;20148;-70
2021/12/21 10:46:05;;;;;;;38.38;17.75;;;;;;;6.20;41.83;93053.94;2075387;69;20144;-73
2021/12/21 10:48:35;;;;;;;22.88;14.35;;;;;;;6.50;40.88;93046.53;2075273;69;20152;-70
2021/12/21 10:51:01;;;;;;;50.85;25.02;;;;;;;7.68;40.99;93039.00;2075198;69;20150;-72
2021/12/21 10:53:27;;;;;;;27.05;15.40;;;;;;;7.68;39.08;93032.66;2075351;69;20156;-72
2021/12/21 10:56:02;;;;;;;27.92;16.27;;;;;;;7.60;39.91;93029.97;2071899;69;20191;-74
2021/12/21 10:58:29;;;;;;;20.85;14.05;;;;;;;8.11;38.17;93031.78;2075283;69;20219;-70
2021/12/21 11:00:58;;;;;;;22.60;12.48;;;;;;;9.61;36.84;93018.66;2075256;69;20144;-72
2021/12/21 11:03:33;;;;;;;27.25;16.52;;;;;;;9.27;34.22;93016.25;2075266;69;20144;-72
2021/12/21 11:06:15;;;;;;;52.25;21.45;;;;;;;8.32;35.18;93010.81;2075116;69;20235;-72
2021/12/21 11:08:46;;;;;;;37.30;17.48;;;;;;;6.50;37.28;93004.59;2075297;69;20179;-70
2021/12/21 11:11:22;;;;;;;31.88;18.50;;;;;;;5.81;38.84;93013.66;2075233;69;20234;-72
2021/12/21 11:14:08;;;;;;;37.05;23.77;;;;;;;5.62;39.83;93000.22;2075267;69;20244;-69
2021/12/21 11:16:37;;;;;;;31.95;19.10;;;;;;;6.03;39.29;92995.97;2072301;69;20140;-70
2021/12/21 11:19:04;;;;;;;27.48;15.50;;;;;;;5.36;41.07;92993.19;2075227;69;20179;-69
2021/12/21 11:21:31;;;;;;;23.40;14.48;;;;;;;5.29;40.65;92989.13;2075254;69;20211;-68
2021/12/21 11:24:01;;;;;;;28.17;14.13;;;;;;;4.48;41.96;92987.75;2071943;69;20152;-70
2021/12/21 11:26:27;;;;;;;28.05;15.00;;;;;;;4.77;43.10;92977.78;2070780;69;20172;-69
2021/12/21 11:28:55;;;;;;;37.38;17.98;;;;;;;3.86;42.76;92972.56;2070661;69;20592;-69
2021/12/21 11:31:23;;;;;;;49.30;23.42;;;;;;;2.59;45.51;92971.47;2071360;69;20510;-69
2021/12/21 11:33:55;;;;;;;52.20;21.63;;;;;;;2.86;45.30;92967.06;2071623;69;20136;-69
2021/12/21 11:39:07;;;;;;;38.22;17.38;;;;;;;2.20;45.65;92956.69;2071677;69;20179;-69
2021/12/21 11:41:34;;;;;;;30.52;15.88;;;;;;;1.81;46.85;92961.38;2071856;69;20682;-68
2021/12/21 11:44:16;;;;;;;37.25;15.25;;;;;;;1.45;47.81;92950.25;2071786;69;20148;-68
2021/12/21 11:47:01;;;;;;;35.30;15.40;;;;;;;1.77;47.07;92941.53;2071766;69;20634;-67
2021/12/21 11:49:50;;;;;;;35.25;15.93;;;;;;;1.87;47.08;92941.78;2071760;69;20204;-69
2021/12/21 11:52:19;;;;;;;38.97;15.40;;;;;;;1.66;47.71;92948.16;2071759;69;20163;-69
2021/12/21 11:54:57;;;;;;;52.53;22.30;;;;;;;0.37;50.56;92939.63;2071752;69;20222;-71
2021/12/21 11:58:13;;;;;;;43.75;20.27;;;;;;;0.99;48.75;92947.16;2071751;69;20618;-68
2021/12/21 12:00:44;;;;;;;42.35;21.23;;;;;;;0.59;50.17;92941.09;2057405;69;20152;-68
2021/12/21 12:03:18;;;;;;;45.25;22.63;;;;;;;0.72;49.95;92946.56;2057611;69;20153;-68
2021/12/21 12:06:02;;;;;;;44.42;20.98;;;;;;;0.71;50.85;92936.78;2057317;69;20168;-71
2021/12/21 12:08:49;;;;;;;37.45;17.38;;;;;;;0.57;51.81;92938.13;2057447;69;20189;-70
2021/12/21 12:11:22;;;;;;;37.40;15.77;;;;;;;0.19;50.74;92933.72;2057096;69;20185;-71
2021/12/21 12:13:48;;;;;;;39.58;20.33;;;;;;;-0.26;51.35;92926.38;2054575;69;20170;-70
2021/12/21 12:16:15;;;;;;;96.25;40.47;;;;;;;0.01;51.30;92926.31;2057490;69;20286;-71
2021/12/21 12:18:46;;;;;;;69.68;34.30;;;;;;;0.29;52.00;92924.94;2057485;69;20173;-69
2021/12/21 12:21:18;;;;;;;63.10;27.00;;;;;;;0.15;51.82;92915.94;2057345;69;20723;-70
2021/12/21 12:23:48;;;;;;;49.50;21.30;;;;;;;0.16;50.86;92907.09;2057443;69;20146;-70